createdAt,value
2023-01-19T00:00:44.092Z,98265.06
2023-01-19T00:03:16.351Z,98264.91
2023-01-19T00:05:44.954Z,98266.59
2023-01-19T00:08:16.091Z,98266.75
2023-01-19T00:10:46.524Z,98268.47
2023-01-19T00:13:16.587Z,98254.66
2023-01-19T00:15:45.239Z,98265.25
2023-01-19T00:18:13.582Z,98260.03
2023-01-19T00:20:42.301Z,98265.25
2023-01-19T00:23:10.479Z,98259.13
2023-01-19T00:25:42.556Z,98255.06
2023-01-19T00:28:11.866Z,98252.47
2023-01-19T00:30:42.334Z,98249.13
2023-01-19T00:33:11.301Z,98249.94
2023-01-19T00:35:39.562Z,98258.03
2023-01-19T00:38:07.701Z,98262.56
2023-01-19T00:40:35.940Z,98258.28
2023-01-19T00:43:05.189Z,98254.16
2023-01-19T00:45:35.147Z,98257.69
2023-01-19T00:48:05.019Z,98259.53
2023-01-19T00:50:34.486Z,98249.94
2023-01-19T00:53:03.423Z,98256.34
2023-01-19T00:55:33.437Z,98239.88
2023-01-19T00:58:02.974Z,98236.59
2023-01-19T01:00:31.591Z,98254.16
2023-01-19T01:03:00.287Z,98247.94
2023-01-19T01:05:30.016Z,98237.53
2023-01-19T01:07:58.206Z,98243.66
2023-01-19T01:10:28.076Z,98234.59
2023-01-19T01:12:57.800Z,98244.91
2023-01-19T01:15:27.734Z,98235.56
2023-01-19T01:17:56.267Z,98242.56
2023-01-19T01:20:28.775Z,98241.88
2023-01-19T01:22:59.432Z,98251.53
2023-01-19T01:25:28.833Z,98256.91
2023-01-19T01:27:56.956Z,98254.47
2023-01-19T01:30:25.222Z,98249.34
2023-01-19T01:32:53.402Z,98248.50
2023-01-19T01:35:21.593Z,98245.91
2023-01-19T01:37:49.744Z,98238.09
2023-01-19T01:40:20.627Z,98247.59
2023-01-19T01:42:48.736Z,98235.06
2023-01-19T01:45:31.177Z,98246.06
2023-01-19T01:48:03.534Z,98240.09
2023-01-19T01:50:35.789Z,98249.41
2023-01-19T01:53:10.596Z,98257.22
2023-01-19T01:55:47.529Z,98265.03
2023-01-19T01:58:17.562Z,98279.00
2023-01-19T02:01:03.300Z,98282.53
2023-01-19T02:03:33.268Z,98281.59
2023-01-19T02:06:07.352Z,98298.31
2023-01-19T02:08:57.529Z,98298.47
2023-01-19T02:11:44.678Z,98285.38
2023-01-19T02:14:12.848Z,98273.28
2023-01-19T02:16:42.159Z,98241.16
2023-01-19T02:19:15.105Z,98218.75
2023-01-19T02:21:53.068Z,98226.56
2023-01-19T02:24:23.094Z,98242.34
2023-01-19T02:26:52.449Z,98256.38
2023-01-19T02:29:24.118Z,98282.44
2023-01-19T02:31:54.088Z,98300.03
2023-01-19T02:34:22.902Z,98302.63
2023-01-19T02:36:55.337Z,98284.66
2023-01-19T02:39:30.532Z,98259.63
2023-01-19T02:42:03.780Z,98254.72
2023-01-19T02:44:33.103Z,98258.09
2023-01-19T02:47:01.299Z,98247.84
2023-01-19T02:49:30.218Z,98234.06
2023-01-19T02:51:59.041Z,98216.75
2023-01-19T02:54:43.035Z,98244.63
2023-01-19T02:57:27.871Z,98256.88
2023-01-19T03:00:09.960Z,98267.47
2023-01-19T03:02:51.140Z,98263.94
2023-01-19T03:05:34.349Z,98270.81
2023-01-19T03:08:12.549Z,98261.25
2023-01-19T03:10:52.436Z,98253.53
2023-01-19T03:13:31.210Z,98267.47
2023-01-19T03:16:07.759Z,98286.59
2023-01-19T03:18:39.475Z,98295.31
2023-01-19T03:21:10.150Z,98300.53
2023-01-19T03:23:42.718Z,98300.53
2023-01-19T03:26:16.043Z,98280.63
2023-01-19T03:28:47.456Z,98255.69
2023-01-19T03:31:19.230Z,98239.13
2023-01-19T03:33:53.211Z,98238.22
2023-01-19T03:36:26.749Z,98192.53
2023-01-19T03:38:56.273Z,98184.47
2023-01-19T03:41:28.959Z,98193.06
2023-01-19T03:43:58.034Z,98198.41
2023-01-19T03:46:27.453Z,98206.38
2023-01-19T03:48:56.232Z,98215.84
2023-01-19T03:51:24.529Z,98221.00
2023-01-19T03:53:53.102Z,98225.44
2023-01-19T03:56:23.295Z,98217.81
2023-01-19T03:58:54.573Z,98224.78
2023-01-19T04:01:25.313Z,98252.78
2023-01-19T04:03:54.309Z,98263.19
2023-01-19T04:06:23.153Z,98265.19
2023-01-19T04:08:52.508Z,98249.56
2023-01-19T04:11:20.718Z,98265.31
2023-01-19T04:13:48.859Z,98277.44
2023-01-19T04:16:21.333Z,98278.50
2023-01-19T04:18:49.991Z,98268.16
2023-01-19T04:21:18.317Z,98275.72
2023-01-19T04:23:46.456Z,98270.72
2023-01-19T04:26:14.842Z,98265.78
2023-01-19T04:28:43.008Z,98258.16
2023-01-19T04:31:11.244Z,98245.91
2023-01-19T04:33:40.862Z,98242.38
2023-01-19T04:36:09.772Z,98252.19
2023-01-19T04:38:38.594Z,98254.03
2023-01-19T04:41:07.003Z,98233.66
2023-01-19T04:43:35.255Z,98238.56
2023-01-19T04:46:03.968Z,98231.50
2023-01-19T04:48:32.230Z,98231.69
2023-01-19T04:51:01.765Z,98214.47
2023-01-19T04:53:30.083Z,98246.47
2023-01-19T04:55:59.804Z,98252.78
2023-01-19T04:58:28.160Z,98253.09
2023-01-19T05:00:56.346Z,98271.06
2023-01-19T05:03:26.471Z,98277.13
2023-01-19T05:05:55.854Z,98286.69
2023-01-19T05:08:25.545Z,98279.84
2023-01-19T05:10:53.703Z,98265.03
2023-01-19T05:13:21.908Z,98259.84
2023-01-19T05:15:50.610Z,98267.53
2023-01-19T05:18:19.060Z,98296.06
2023-01-19T05:20:47.848Z,98287.75
2023-01-19T05:23:16.023Z,98311.69
2023-01-19T05:25:45.862Z,98318.72
2023-01-19T05:28:15.390Z,98324.84
2023-01-19T05:30:43.668Z,98317.03
2023-01-19T05:33:11.873Z,98311.41
2023-01-19T05:35:40.121Z,98322.59
2023-01-19T05:38:08.283Z,98329.72
2023-01-19T05:40:36.622Z,98322.00
2023-01-19T05:43:06.211Z,98321.91
2023-01-19T05:45:34.676Z,98306.16
2023-01-19T05:48:03.291Z,98304.19
2023-01-19T05:50:31.489Z,98299.59
2023-01-19T05:53:00.329Z,98304.66
2023-01-19T05:55:29.886Z,98309.41
2023-01-19T05:57:58.015Z,98284.19
2023-01-19T06:00:27.866Z,98270.38
2023-01-19T06:02:56.211Z,98285.38
2023-01-19T06:05:24.405Z,98286.31
2023-01-19T06:07:52.710Z,98294.88
2023-01-19T06:10:21.018Z,98285.38
2023-01-19T06:12:49.796Z,98272.47
2023-01-19T06:15:19.136Z,98259.59
2023-01-19T06:17:48.662Z,98274.97
2023-01-19T06:20:16.931Z,98273.00
2023-01-19T06:22:45.141Z,98262.13
2023-01-19T06:25:13.449Z,98243.91
2023-01-19T06:27:46.141Z,98245.44
2023-01-19T06:30:14.864Z,98245.44
2023-01-19T06:32:43.018Z,98269.63
2023-01-19T06:35:12.984Z,98275.91
2023-01-19T06:37:44.843Z,98291.66
2023-01-19T06:40:24.522Z,98302.06
2023-01-19T06:42:53.192Z,98318.06
2023-01-19T06:45:21.499Z,98315.44
2023-01-19T06:47:49.651Z,98308.66
2023-01-19T06:50:19.431Z,98300.03
2023-01-19T06:52:51.063Z,98303.59
2023-01-19T06:55:19.503Z,98308.19
2023-01-19T06:57:48.434Z,98284.00
2023-01-19T07:00:18.575Z,98294.97
2023-01-19T07:02:46.774Z,98297.47
2023-01-19T07:05:15.027Z,98296.72
2023-01-19T07:07:45.551Z,98286.91
2023-01-19T07:10:15.891Z,98288.59
2023-01-19T07:12:46.865Z,98270.09
2023-01-19T07:15:15.712Z,98279.44
2023-01-19T07:17:44.011Z,98299.59
2023-01-19T07:20:14.637Z,98301.31
2023-01-19T07:22:45.849Z,98322.19
2023-01-19T07:25:14.706Z,98322.97
2023-01-19T07:27:42.954Z,98319.13
2023-01-19T07:30:12.167Z,98316.38
2023-01-19T07:32:40.306Z,98311.63
2023-01-19T07:35:09.002Z,98319.34
2023-01-19T07:37:38.661Z,98321.22
2023-01-19T07:40:09.865Z,98323.72
2023-01-19T07:42:39.526Z,98320.19
2023-01-19T07:45:08.533Z,98335.59
2023-01-19T07:47:36.759Z,98318.22
2023-01-19T07:50:05.417Z,98324.19
2023-01-19T07:52:33.622Z,98332.81
2023-01-19T07:55:02.079Z,98327.47
2023-01-19T07:57:31.712Z,98352.28
2023-01-19T08:00:00.315Z,98337.41
2023-01-19T08:02:28.514Z,98352.75
2023-01-19T08:04:56.751Z,98348.53
2023-01-19T08:07:24.931Z,98340.78
2023-01-19T08:09:53.116Z,98337.94
2023-01-19T08:12:21.283Z,98329.91
2023-01-19T08:14:50.844Z,98327.91
2023-01-19T08:17:19.567Z,98325.28
2023-01-19T08:19:47.720Z,98323.44
2023-01-19T08:22:16.097Z,98326.72
2023-01-19T08:24:44.291Z,98320.19
2023-01-19T08:27:13.815Z,98314.81
2023-01-19T08:29:41.934Z,98318.19
2023-01-19T08:32:11.696Z,98321.03
2023-01-19T08:34:39.913Z,98334.84
2023-01-19T08:37:08.102Z,98335.66
2023-01-19T08:39:36.229Z,98341.72
2023-01-19T08:42:04.513Z,98343.09
2023-01-19T08:44:32.684Z,98332.81
2023-01-19T08:47:01.313Z,98338.13
2023-01-19T08:49:30.882Z,98342.09
2023-01-19T08:51:59.067Z,98339.50
2023-01-19T08:54:27.239Z,98340.44
2023-01-19T08:56:55.826Z,98335.47
2023-01-19T08:59:23.962Z,98337.00
2023-01-19T09:01:52.199Z,98334.28
2023-01-19T09:04:20.534Z,98337.50
2023-01-19T09:06:50.175Z,98334.69
2023-01-19T09:09:18.360Z,98324.31
2023-01-19T09:11:46.502Z,98320.19
2023-01-19T09:14:14.657Z,98330.94
2023-01-19T09:16:43.488Z,98334.47
2023-01-19T09:19:11.652Z,98352.53
2023-01-19T09:21:39.820Z,98349.19
2023-01-19T09:24:09.997Z,98347.75
2023-01-19T09:26:40.662Z,98343.38
2023-01-19T09:29:08.839Z,98333.09
2023-01-19T09:31:36.966Z,98337.09
2023-01-19T09:34:05.151Z,98341.13
2023-01-19T09:36:33.297Z,98340.19
2023-01-19T09:39:01.446Z,98353.31
2023-01-19T09:41:33.858Z,98347.75
2023-01-19T09:44:02.236Z,98341.31
2023-01-19T09:46:36.970Z,98336.19
2023-01-19T09:49:12.815Z,98349.72
2023-01-19T09:51:45.048Z,98349.81
2023-01-19T09:54:16.383Z,98351.25
2023-01-19T09:56:48.255Z,98354.00
2023-01-19T09:59:23.120Z,98362.56
2023-01-19T10:02:08.007Z,98349.38
2023-01-19T10:04:41.025Z,98347.91
2023-01-19T10:07:21.289Z,98359.94
2023-01-19T10:10:04.221Z,98362.06
2023-01-19T10:12:42.823Z,98369.88
2023-01-19T10:15:21.963Z,98366.28
2023-01-19T10:18:05.493Z,98367.91
2023-01-19T10:20:39.979Z,98368.66
2023-01-19T10:23:23.087Z,98359.91
2023-01-19T10:25:52.008Z,98362.06
2023-01-19T10:28:26.746Z,98366.66
2023-01-19T10:30:56.247Z,98364.88
2023-01-19T10:33:24.508Z,98367.50
2023-01-19T10:35:52.897Z,98368.28
2023-01-19T10:38:22.357Z,98360.31
2023-01-19T10:40:57.789Z,98368.78
2023-01-19T10:43:48.758Z,98383.19
2023-01-19T10:46:24.576Z,98377.84
2023-01-19T10:48:55.480Z,98385.88
2023-01-19T10:51:23.852Z,98386.88
2023-01-19T10:54:01.446Z,98391.63
2023-01-19T10:56:33.821Z,98389.19
2023-01-19T10:59:07.763Z,98387.88
2023-01-19T11:01:38.109Z,98391.13
2023-01-19T11:04:23.466Z,98392.69
2023-01-19T11:06:51.624Z,98390.31
2023-01-19T11:09:23.589Z,98393.75
2023-01-19T11:11:53.471Z,98381.50
2023-01-19T11:14:25.389Z,98386.69
2023-01-19T11:16:56.137Z,98382.13
2023-01-19T11:19:29.739Z,98374.09
2023-01-19T11:22:12.136Z,98381.91
2023-01-19T11:24:40.697Z,98372.72
2023-01-19T11:27:08.905Z,98375.69
2023-01-19T11:29:40.627Z,98376.16
2023-01-19T11:32:13.859Z,98383.53
2023-01-19T11:34:42.033Z,98383.75
2023-01-19T11:37:29.124Z,98373.69
2023-01-19T11:39:58.920Z,98386.84
2023-01-19T11:42:29.588Z,98378.13
2023-01-19T11:45:06.277Z,98379.19
2023-01-19T11:47:42.646Z,98390.22
2023-01-19T11:50:17.215Z,98376.38
2023-01-19T11:52:49.529Z,98382.28
2023-01-19T11:55:23.616Z,98397.19
2023-01-19T11:57:54.788Z,98397.44
2023-01-19T12:00:29.902Z,98398.66
2023-01-19T12:03:04.424Z,98402.69
2023-01-19T12:05:35.890Z,98409.03
2023-01-19T12:08:08.731Z,98410.59
2023-01-19T12:10:41.732Z,98419.00
2023-01-19T12:13:19.950Z,98419.06
2023-01-19T12:15:54.581Z,98427.78
2023-01-19T12:18:25.549Z,98420.06
2023-01-19T12:20:55.847Z,98433.13
2023-01-19T12:23:34.039Z,98437.34
2023-01-19T12:26:15.071Z,98442.25
2023-01-19T12:28:45.293Z,98444.81
2023-01-19T12:31:18.538Z,98452.03
2023-01-19T12:33:47.850Z,98447.00
2023-01-19T12:36:38.613Z,98444.84
2023-01-19T12:39:21.045Z,98438.75
2023-01-19T12:41:51.272Z,98454.38
2023-01-19T12:44:34.324Z,98463.31
2023-01-19T12:47:22.331Z,98463.94
2023-01-19T12:49:53.088Z,98464.09
2023-01-19T12:52:34.795Z,98464.72
2023-01-19T12:55:08.984Z,98470.66
2023-01-19T12:57:41.231Z,98465.59
2023-01-19T13:00:30.243Z,98480.97
2023-01-19T13:03:00.997Z,98477.41
2023-01-19T13:05:59.296Z,98485.00
2023-01-19T13:08:31.365Z,98505.53
2023-01-19T13:11:21.049Z,98509.47
2023-01-19T13:14:30.933Z,98526.50
2023-01-19T13:17:22.411Z,98524.59
2023-01-19T13:20:20.873Z,98532.28
2023-01-19T13:23:14.629Z,98527.19
2023-01-19T13:25:46.059Z,98543.22
2023-01-19T13:28:17.445Z,98542.75
2023-01-19T13:30:55.623Z,98548.03
2023-01-19T13:33:26.499Z,98547.72
2023-01-19T13:35:58.828Z,98556.44
2023-01-19T13:38:32.961Z,98571.22
2023-01-19T13:41:04.103Z,98570.63
2023-01-19T13:43:37.856Z,98569.84
2023-01-19T13:46:07.266Z,98574.41
2023-01-19T13:48:35.766Z,98580.72
2023-01-19T13:51:06.138Z,98588.47
2023-01-19T13:53:36.714Z,98591.19
2023-01-19T13:56:22.244Z,98589.50
2023-01-19T13:59:10.006Z,98590.25
2023-01-19T14:01:40.220Z,98595.63
2023-01-19T14:04:31.020Z,98597.44
2023-01-19T14:07:02.520Z,98588.06
2023-01-19T14:09:32.411Z,98581.25
2023-01-19T14:12:12.280Z,98575.34
2023-01-19T14:14:40.806Z,98570.91
2023-01-19T14:17:22.667Z,98589.69
2023-01-19T14:19:51.385Z,98575.34
2023-01-19T14:22:19.781Z,98575.06
2023-01-19T14:24:49.311Z,98591.25
2023-01-19T14:27:25.390Z,98593.25
2023-01-19T14:29:55.042Z,98593.78
2023-01-19T14:32:25.321Z,98595.22
2023-01-19T14:35:13.304Z,98606.91
2023-01-19T14:37:49.374Z,98599.03
2023-01-19T14:40:21.725Z,98598.34
2023-01-19T14:42:54.122Z,98608.59
2023-01-19T14:45:25.053Z,98613.25
2023-01-19T14:47:59.599Z,98626.88
2023-01-19T14:50:30.912Z,98632.78
2023-01-19T14:53:01.883Z,98639.53
2023-01-19T14:55:36.739Z,98650.03
2023-01-19T14:58:11.679Z,98658.50
2023-01-19T15:00:40.342Z,98669.81
2023-01-19T15:03:09.986Z,98676.97
2023-01-19T15:05:54.760Z,98694.06
2023-01-19T15:08:28.509Z,98700.25
2023-01-19T15:10:59.422Z,98690.91
2023-01-19T15:13:28.775Z,98677.38
2023-01-19T15:15:58.532Z,98666.69
2023-01-19T15:18:28.073Z,98681.72
2023-01-19T15:21:02.751Z,98687.13
2023-01-19T15:23:31.213Z,98680.09
2023-01-19T15:26:03.236Z,98671.25
2023-01-19T15:28:34.268Z,98689.44
2023-01-19T15:31:02.692Z,98696.22
2023-01-19T15:33:31.867Z,98694.00
2023-01-19T15:36:00.224Z,98701.69
2023-01-19T15:38:28.380Z,98698.88
2023-01-19T15:40:56.705Z,98711.94
2023-01-19T15:43:26.220Z,98698.03
2023-01-19T15:46:01.559Z,98706.72
2023-01-19T15:48:30.150Z,98709.09
2023-01-19T15:50:58.421Z,98709.28
2023-01-19T15:53:27.373Z,98726.56
2023-01-19T15:55:57.090Z,98727.69
2023-01-19T15:58:26.812Z,98743.13
2023-01-19T16:00:55.684Z,98754.63
2023-01-19T16:03:23.946Z,98751.25
2023-01-19T16:05:52.124Z,98745.19
2023-01-19T16:08:21.485Z,98749.31
2023-01-19T16:10:49.750Z,98760.66
2023-01-19T16:13:18.151Z,98776.16
2023-01-19T16:15:47.787Z,98770.09
2023-01-19T16:18:16.407Z,98785.44
2023-01-19T16:20:45.010Z,98792.53
2023-01-19T16:23:15.532Z,98796.84
2023-01-19T16:25:44.459Z,98803.00
2023-01-19T16:28:13.166Z,98810.97
2023-01-19T16:30:41.350Z,98817.84
2023-01-19T16:33:13.971Z,98825.75
2023-01-19T16:35:42.324Z,98836.16
2023-01-19T16:38:10.523Z,98847.25
2023-01-19T16:40:38.865Z,98847.47
2023-01-19T16:43:07.075Z,98865.00
2023-01-19T16:45:35.249Z,98862.50
2023-01-19T16:48:03.749Z,98867.28
2023-01-19T16:50:33.356Z,98877.13
2023-01-19T16:53:01.922Z,98866.03
2023-01-19T16:55:30.113Z,98876.94
2023-01-19T16:57:59.083Z,98870.75
2023-01-19T17:00:27.960Z,98861.50
2023-01-19T17:02:56.898Z,98868.75
2023-01-19T17:05:25.896Z,98886.34
2023-01-19T17:07:55.749Z,98887.13
2023-01-19T17:10:25.296Z,98884.59
2023-01-19T17:12:54.260Z,98892.31
2023-01-19T17:15:22.743Z,98908.03
2023-01-19T17:17:51.396Z,98905.72
2023-01-19T17:20:20.597Z,98907.50
2023-01-19T17:22:49.478Z,98911.84
2023-01-19T17:25:19.639Z,98917.78
2023-01-19T17:27:50.792Z,98919.47
2023-01-19T17:30:20.679Z,98927.22
2023-01-19T17:32:50.435Z,98921.19
2023-01-19T17:35:20.271Z,98921.91
2023-01-19T17:37:48.838Z,98923.72
2023-01-19T17:40:19.449Z,98917.03
2023-01-19T17:42:48.789Z,98899.25
2023-01-19T17:45:18.406Z,98911.41
2023-01-19T17:47:50.972Z,98908.66
2023-01-19T17:50:19.597Z,98913.00
2023-01-19T17:52:49.007Z,98915.44
2023-01-19T17:55:20.423Z,98932.53
2023-01-19T17:57:49.950Z,98941.84
2023-01-19T18:00:20.512Z,98940.25
2023-01-19T18:02:52.790Z,98939.53
2023-01-19T18:05:22.936Z,98948.09
2023-01-19T18:07:52.650Z,98941.22
2023-01-19T18:10:26.013Z,98929.25
2023-01-19T18:12:57.302Z,98937.03
2023-01-19T18:15:27.752Z,98943.31
2023-01-19T18:17:57.239Z,98949.75
2023-01-19T18:20:25.912Z,98931.47
2023-01-19T18:22:55.300Z,98947.34
2023-01-19T18:25:27.970Z,98950.94
2023-01-19T18:27:57.514Z,98951.91
2023-01-19T18:30:27.626Z,98952.97
2023-01-19T18:32:56.740Z,98959.03
2023-01-19T18:35:27.305Z,98953.34
2023-01-19T18:37:57.601Z,98962.78
2023-01-19T18:40:31.913Z,98955.13
2023-01-19T18:43:02.684Z,98951.84
2023-01-19T18:45:32.459Z,98948.34
2023-01-19T18:48:03.720Z,98953.50
2023-01-19T18:50:34.002Z,98954.34
2023-01-19T18:53:03.186Z,98949.09
2023-01-19T18:55:34.021Z,98950.09
2023-01-19T18:58:06.884Z,98947.75
2023-01-19T19:00:37.608Z,98963.16
2023-01-19T19:03:11.013Z,98951.84
2023-01-19T19:05:42.212Z,98946.59
2023-01-19T19:08:13.224Z,98968.34
2023-01-19T19:10:45.568Z,98975.25
2023-01-19T19:13:15.945Z,98980.31
2023-01-19T19:15:46.128Z,98985.50
2023-01-19T19:18:18.516Z,98976.81
2023-01-19T19:20:49.766Z,98992.13
2023-01-19T19:23:20.100Z,98999.69
2023-01-19T19:25:54.739Z,98997.97
2023-01-19T19:28:25.133Z,98999.56
2023-01-19T19:31:06.130Z,99007.47
2023-01-19T19:33:35.846Z,99027.34
2023-01-19T19:38:50.581Z,99018.25
2023-01-19T19:41:28.909Z,99027.63
2023-01-19T19:43:59.958Z,99040.53
2023-01-19T19:46:30.764Z,99037.13
2023-01-19T19:49:00.134Z,99038.81
2023-01-19T19:51:31.395Z,99039.63
2023-01-19T19:54:01.822Z,99019.84
2023-01-19T19:56:34.568Z,99035.59
2023-01-19T19:59:04.230Z,99032.31
2023-01-19T20:01:34.542Z,99040.91
2023-01-19T20:04:09.105Z,99046.88
2023-01-19T20:06:45.037Z,99047.88
2023-01-19T20:09:15.447Z,99048.66
2023-01-19T20:11:49.704Z,99041.69
2023-01-19T20:14:18.814Z,99044.22
2023-01-19T20:16:47.707Z,99036.38
2023-01-19T20:19:19.116Z,99041.63
2023-01-19T20:21:49.959Z,99040.91
2023-01-19T20:24:22.228Z,99050.25
2023-01-19T20:26:57.296Z,99047.81
2023-01-19T20:29:26.703Z,99044.28
2023-01-19T20:31:57.558Z,99047.72
2023-01-19T20:34:33.349Z,99046.06
2023-01-19T20:37:04.746Z,99047.72
2023-01-19T20:39:35.984Z,99048.59
2023-01-19T20:42:11.445Z,99046.81
2023-01-19T20:44:40.825Z,99059.78
2023-01-19T20:47:10.540Z,99063.28
2023-01-19T20:49:43.584Z,99063.38
2023-01-19T20:52:12.908Z,99055.75
2023-01-19T20:54:42.285Z,99055.06
2023-01-19T20:57:13.561Z,99059.41
2023-01-19T20:59:43.134Z,99051.53
2023-01-19T21:02:15.597Z,99053.28
2023-01-19T21:04:45.713Z,99061.78
2023-01-19T21:07:15.949Z,99069.47
2023-01-19T21:09:44.269Z,99071.94
2023-01-19T21:12:15.677Z,99070.16
2023-01-19T21:14:49.428Z,99074.41
2023-01-19T21:17:18.557Z,99085.66
2023-01-19T21:19:47.014Z,99082.16
2023-01-19T21:22:16.250Z,99082.94
2023-01-19T21:24:44.637Z,99079.59
2023-01-19T21:27:14.254Z,99082.16
2023-01-19T21:29:42.805Z,99083.22
2023-01-19T21:32:11.703Z,99094.38
2023-01-19T21:34:40.094Z,99110.09
2023-01-19T21:37:08.505Z,99114.53
2023-01-19T21:39:39.211Z,99127.75
2023-01-19T21:42:07.603Z,99114.81
2023-01-19T21:44:37.450Z,99122.84
2023-01-19T21:47:10.144Z,99122.75
2023-01-19T21:49:38.529Z,99147.72
2023-01-19T21:52:07.098Z,99171.25
2023-01-19T21:54:35.613Z,99205.81
2023-01-19T21:57:05.872Z,99206.59
2023-01-19T21:59:33.983Z,99208.31
2023-01-19T22:02:03.689Z,99194.78
2023-01-19T22:04:31.979Z,99177.66
2023-01-19T22:07:00.508Z,99166.44
2023-01-19T22:09:28.766Z,99161.13
2023-01-19T22:11:56.949Z,99155.94
2023-01-19T22:14:25.883Z,99151.88
2023-01-19T22:16:54.321Z,99154.84
2023-01-19T22:19:24.545Z,99160.81
2023-01-19T22:21:52.738Z,99170.16
2023-01-19T22:24:20.900Z,99159.84
2023-01-19T22:26:49.035Z,99159.16
2023-01-19T22:29:17.206Z,99149.66
2023-01-19T22:31:46.026Z,99149.59
2023-01-19T22:34:15.946Z,99150.50
2023-01-19T22:36:45.660Z,99169.50
2023-01-19T22:39:14.339Z,99169.50
2023-01-19T22:41:44.970Z,99160.88
2023-01-19T22:44:14.824Z,99150.38
2023-01-19T22:46:43.037Z,99149.41
2023-01-19T22:49:14.131Z,99148.34
2023-01-19T22:51:42.617Z,99144.78
2023-01-19T22:54:12.266Z,99148.00
2023-01-19T22:56:42.157Z,99153.88
2023-01-19T22:59:10.695Z,99155.66
2023-01-19T23:01:41.208Z,99136.63
2023-01-19T23:04:12.809Z,99137.47
2023-01-19T23:06:41.277Z,99122.84
2023-01-19T23:09:14.322Z,99119.75
2023-01-19T23:11:44.129Z,99114.97
2023-01-19T23:14:16.250Z,99109.06
2023-01-19T23:16:44.491Z,99105.56
2023-01-19T23:19:13.900Z,99094.41
2023-01-19T23:21:42.725Z,99103.88
2023-01-19T23:24:12.762Z,99109.84
2023-01-19T23:26:41.048Z,99107.94
2023-01-19T23:29:12.364Z,99098.47
2023-01-19T23:31:44.995Z,99115.03
2023-01-19T23:34:13.697Z,99116.84
2023-01-19T23:36:44.458Z,99122.88
2023-01-19T23:39:16.826Z,99122.88
2023-01-19T23:41:45.142Z,99139.41
2023-01-19T23:44:13.408Z,99148.94
2023-01-19T23:46:41.687Z,99148.25
2023-01-19T23:49:09.885Z,99154.28
2023-01-19T23:51:38.275Z,99155.19
2023-01-19T23:54:07.118Z,99152.91
2023-01-19T23:56:38.264Z,99140.34
2023-01-19T23:59:08.554Z,99130.28
